createdAt,value
2022-09-28T00:01:17.129Z,11.93
2022-09-28T00:03:44.686Z,10.57
2022-09-28T00:06:13.270Z,10.55
2022-09-28T00:08:39.720Z,12.25
2022-09-28T00:11:08.366Z,11.52
2022-09-28T00:13:35.185Z,11.70
2022-09-28T00:16:07.451Z,12.13
2022-09-28T00:21:07.100Z,11.68
2022-09-28T00:23:34.381Z,11.32
2022-09-28T00:26:07.063Z,12.98
2022-09-28T00:28:33.585Z,12.05
2022-09-28T00:31:00.822Z,14.15
2022-09-28T00:33:27.219Z,12.13
2022-09-28T00:35:59.747Z,16.27
2022-09-28T00:38:28.369Z,14.75
2022-09-28T00:40:56.008Z,14.02
2022-09-28T00:43:23.688Z,15.15
2022-09-28T00:45:56.968Z,18.15
2022-09-28T00:48:24.157Z,17.77
2022-09-28T00:50:50.651Z,17.65
2022-09-28T00:53:40.914Z,18.90
2022-09-28T00:56:11.148Z,18.30
2022-09-28T00:58:45.910Z,17.42
2022-09-28T01:01:12.912Z,17.58
2022-09-28T01:03:45.571Z,17.65
2022-09-28T01:06:27.416Z,16.15
2022-09-28T01:08:56.153Z,19.98
2022-09-28T01:11:22.543Z,18.55
2022-09-28T01:13:49.978Z,17.58
2022-09-28T01:16:24.476Z,16.80
2022-09-28T01:19:09.721Z,18.60
2022-09-28T01:21:51.412Z,23.48
2022-09-28T01:25:07.762Z,19.20
2022-09-28T01:27:43.154Z,18.50
2022-09-28T01:30:12.408Z,15.95
2022-09-28T01:32:52.206Z,16.08
2022-09-28T01:35:25.314Z,14.77
2022-09-28T01:37:56.782Z,16.35
2022-09-28T01:40:25.676Z,15.38
2022-09-28T01:42:57.563Z,15.65
2022-09-28T01:45:28.506Z,14.43
2022-09-28T01:47:59.940Z,13.65
2022-09-28T01:50:29.031Z,21.43
2022-09-28T01:52:59.230Z,13.30
2022-09-28T01:55:29.891Z,14.05
2022-09-28T01:58:18.787Z,16.55
2022-09-28T02:00:48.685Z,14.48
2022-09-28T02:03:19.138Z,11.98
2022-09-28T02:05:52.646Z,15.45
2022-09-28T02:11:38.791Z,15.98
2022-09-28T02:14:07.914Z,16.35
2022-09-28T02:16:40.482Z,16.30
2022-09-28T02:19:10.073Z,19.73
2022-09-28T02:21:48.689Z,14.63
2022-09-28T02:24:30.146Z,18.50
2022-09-28T02:26:59.610Z,18.08
2022-09-28T02:29:26.043Z,17.60
2022-09-28T02:31:52.539Z,20.15
2022-09-28T02:34:21.829Z,21.80
2022-09-28T02:36:48.383Z,15.82
2022-09-28T02:39:16.858Z,21.15
2022-09-28T02:41:55.062Z,21.55
2022-09-28T02:44:35.278Z,20.77
2022-09-28T02:47:25.808Z,22.20
2022-09-28T02:50:18.298Z,19.98
2022-09-28T02:53:06.054Z,23.38
2022-09-28T02:55:50.288Z,22.52
2022-09-28T02:58:35.345Z,21.60
2022-09-28T03:01:20.462Z,22.58
2022-09-28T03:03:58.303Z,21.08
2022-09-28T03:06:44.251Z,21.35
2022-09-28T03:09:19.186Z,23.83
2022-09-28T03:11:59.246Z,26.73
2022-09-28T03:14:25.669Z,28.13
2022-09-28T03:16:52.458Z,27.08
2022-09-28T03:19:22.108Z,29.13
2022-09-28T03:21:49.369Z,28.67
2022-09-28T03:24:15.825Z,29.88
2022-09-28T03:26:42.280Z,30.70
2022-09-28T03:29:08.721Z,34.25
2022-09-28T03:31:35.772Z,32.15
2022-09-28T03:34:02.519Z,31.40
2022-09-28T03:36:28.960Z,30.73
2022-09-28T03:38:56.125Z,37.70
2022-09-28T03:41:24.250Z,36.10
2022-09-28T03:43:50.754Z,32.85
2022-09-28T03:46:17.475Z,32.75
2022-09-28T03:48:43.944Z,35.75
2022-09-28T03:51:11.630Z,36.95
2022-09-28T03:53:38.290Z,40.03
2022-09-28T03:56:07.047Z,38.92
2022-09-28T03:58:33.502Z,38.22
2022-09-28T04:01:12.913Z,37.15
2022-09-28T04:03:43.149Z,38.40
2022-09-28T04:06:09.851Z,39.30
2022-09-28T04:08:36.188Z,37.33
2022-09-28T04:11:02.592Z,42.08
2022-09-28T04:13:29.655Z,36.55
2022-09-28T04:15:57.557Z,40.65
2022-09-28T04:18:24.471Z,41.13
2022-09-28T04:21:03.329Z,38.15
2022-09-28T04:23:30.070Z,41.08
2022-09-28T04:25:56.876Z,41.92
2022-09-28T04:28:41.787Z,37.90
2022-09-28T04:31:10.509Z,45.45
2022-09-28T04:33:37.349Z,42.08
2022-09-28T04:36:03.937Z,40.70
2022-09-28T04:38:48.750Z,43.55
2022-09-28T04:41:16.694Z,48.10
2022-09-28T04:43:43.040Z,42.65
2022-09-28T04:46:10.432Z,39.60
2022-09-28T04:48:37.652Z,42.65
2022-09-28T04:51:04.243Z,43.70
2022-09-28T04:53:30.810Z,43.97
2022-09-28T04:56:01.096Z,40.78
2022-09-28T04:58:28.431Z,38.58
2022-09-28T05:00:58.610Z,39.60
2022-09-28T05:03:25.487Z,36.72
2022-09-28T05:06:00.026Z,37.50
2022-09-28T05:08:26.913Z,39.22
2022-09-28T05:10:58.582Z,35.13
2022-09-28T05:13:25.260Z,38.40
2022-09-28T05:15:58.089Z,36.00
2022-09-28T05:18:27.327Z,37.25
2022-09-28T05:20:53.785Z,40.05
2022-09-28T05:23:20.233Z,36.83
2022-09-28T05:25:46.641Z,37.47
2022-09-28T05:28:13.046Z,38.85
2022-09-28T05:30:39.426Z,39.67
2022-09-28T05:33:05.930Z,33.90
2022-09-28T05:35:32.302Z,36.50
2022-09-28T05:38:03.541Z,38.88
2022-09-28T05:40:30.095Z,41.53
2022-09-28T05:43:00.203Z,36.42
2022-09-28T05:45:26.810Z,39.85
2022-09-28T05:47:53.833Z,33.88
2022-09-28T05:50:20.338Z,37.38
2022-09-28T05:52:46.988Z,41.42
2022-09-28T05:55:13.838Z,37.88
2022-09-28T05:57:40.208Z,43.13
2022-09-28T06:00:10.225Z,41.17
2022-09-28T06:02:36.782Z,45.42
2022-09-28T06:05:03.345Z,41.60
2022-09-28T06:07:29.757Z,45.22
2022-09-28T06:09:56.411Z,40.75
2022-09-28T06:12:22.771Z,41.33
2022-09-28T06:14:49.354Z,47.03
2022-09-28T06:17:15.731Z,46.13
2022-09-28T06:19:42.314Z,50.70
2022-09-28T06:22:09.072Z,49.92
2022-09-28T06:24:35.644Z,48.22
2022-09-28T06:27:02.067Z,45.28
2022-09-28T06:29:29.162Z,42.33
2022-09-28T06:31:56.192Z,46.80
2022-09-28T06:34:24.642Z,39.00
2022-09-28T06:36:51.284Z,39.78
2022-09-28T06:39:18.052Z,37.33
2022-09-28T06:41:44.419Z,31.65
2022-09-28T06:44:10.888Z,32.50
2022-09-28T06:46:41.521Z,33.10
2022-09-28T06:49:09.433Z,30.60
2022-09-28T06:51:36.896Z,30.52
2022-09-28T06:54:03.778Z,28.40
2022-09-28T06:56:32.936Z,26.55
2022-09-28T06:58:59.566Z,24.80
2022-09-28T07:01:25.997Z,23.65
2022-09-28T07:03:55.532Z,23.42
2022-09-28T07:06:24.091Z,26.73
2022-09-28T07:09:02.746Z,24.02
2022-09-28T07:11:39.558Z,27.17
2022-09-28T07:14:06.564Z,27.58
2022-09-28T07:17:07.055Z,25.33
2022-09-28T07:19:26.879Z,27.00
2022-09-28T07:22:02.683Z,26.17
2022-09-28T07:24:31.051Z,27.67
2022-09-28T07:26:57.582Z,26.85
2022-09-28T07:29:23.971Z,32.65
2022-09-28T07:31:50.334Z,31.55
2022-09-28T07:34:18.681Z,30.67
2022-09-28T07:36:45.322Z,28.67
2022-09-28T07:39:12.125Z,31.02
2022-09-28T07:41:39.985Z,30.80
2022-09-28T07:44:06.468Z,34.88
2022-09-28T07:46:34.579Z,36.72
2022-09-28T07:49:01.227Z,32.72
2022-09-28T07:51:27.909Z,33.25
2022-09-28T07:53:54.389Z,31.63
2022-09-28T07:56:20.789Z,36.70
2022-09-28T07:58:47.709Z,33.83
2022-09-28T08:01:16.387Z,36.33
2022-09-28T08:03:47.861Z,40.10
2022-09-28T08:06:17.029Z,39.45
2022-09-28T08:08:44.691Z,38.00
2022-09-28T08:11:13.393Z,37.85
2022-09-28T08:13:39.941Z,42.30
2022-09-28T08:16:08.912Z,43.85
2022-09-28T08:18:35.709Z,45.75
2022-09-28T08:21:22.355Z,42.65
2022-09-28T08:23:48.942Z,36.95
2022-09-28T08:26:16.394Z,37.35
2022-09-28T08:28:44.820Z,36.42
2022-09-28T08:31:11.253Z,39.28
2022-09-28T08:33:37.713Z,40.92
2022-09-28T08:36:05.067Z,42.55
2022-09-28T08:38:32.099Z,40.38
2022-09-28T08:41:33.888Z,41.90
2022-09-28T08:44:00.389Z,37.38
2022-09-28T08:46:32.330Z,40.45
2022-09-28T08:49:30.549Z,38.92
2022-09-28T08:52:17.813Z,38.28
2022-09-28T08:55:14.048Z,35.72
2022-09-28T08:57:46.012Z,34.67
2022-09-28T09:00:18.060Z,34.10
2022-09-28T09:02:46.791Z,41.33
2022-09-28T09:05:16.118Z,34.22
2022-09-28T09:07:57.728Z,39.00
2022-09-28T09:10:46.240Z,39.00
2022-09-28T09:13:37.140Z,39.53
2022-09-28T09:16:03.582Z,35.20
2022-09-28T09:18:48.441Z,36.58
2022-09-28T09:21:25.517Z,29.92
2022-09-28T09:23:55.273Z,30.38
2022-09-28T09:26:26.386Z,31.80
2022-09-28T09:29:15.609Z,32.08
2022-09-28T09:32:14.391Z,32.78
2022-09-28T09:34:56.161Z,30.65
2022-09-28T09:37:28.529Z,31.75
2022-09-28T09:40:26.377Z,31.83
2022-09-28T09:43:06.427Z,31.48
2022-09-28T09:45:59.564Z,27.92
2022-09-28T09:48:41.900Z,29.95
2022-09-28T09:51:21.908Z,29.95
2022-09-28T09:54:00.641Z,28.95
2022-09-28T09:56:49.318Z,25.52
2022-09-28T09:59:24.147Z,29.48
2022-09-28T10:01:51.738Z,27.40
2022-09-28T10:04:24.268Z,25.42
2022-09-28T10:06:55.806Z,23.20
2022-09-28T10:09:52.789Z,25.00
2022-09-28T10:12:21.056Z,23.88
2022-09-28T10:14:47.484Z,25.13
2022-09-28T10:17:16.614Z,24.88
2022-09-28T10:19:43.698Z,23.85
2022-09-28T10:22:15.096Z,24.52
2022-09-28T10:24:46.710Z,26.92
2022-09-28T10:27:20.024Z,25.80
2022-09-28T10:29:53.825Z,25.35
2022-09-28T10:32:25.828Z,25.02
2022-09-28T10:34:53.360Z,27.17
2022-09-28T10:37:19.828Z,22.08
2022-09-28T10:39:54.186Z,23.63
2022-09-28T10:42:27.469Z,24.15
2022-09-28T10:44:53.768Z,24.75
2022-09-28T10:47:23.028Z,20.02
2022-09-28T10:49:50.483Z,20.58
2022-09-28T10:52:41.687Z,19.80
2022-09-28T10:55:30.662Z,19.50
2022-09-28T10:57:57.304Z,15.60
2022-09-28T11:00:41.951Z,15.55
2022-09-28T11:03:20.093Z,12.48
2022-09-28T11:06:06.714Z,14.02
2022-09-28T11:08:38.410Z,13.68
2022-09-28T11:11:13.352Z,20.48
2022-09-28T11:14:01.302Z,13.95
2022-09-28T11:16:39.041Z,13.43
2022-09-28T11:19:26.919Z,12.63
2022-09-28T11:21:53.342Z,11.60
2022-09-28T11:24:24.351Z,11.25
2022-09-28T11:26:53.447Z,15.27
2022-09-28T11:29:22.957Z,11.20
2022-09-28T11:31:49.513Z,11.85
2022-09-28T11:34:57.426Z,11.98
2022-09-28T11:37:43.887Z,12.18
2022-09-28T11:40:20.359Z,11.75
2022-09-28T11:42:52.316Z,11.80
2022-09-28T11:45:45.425Z,10.30
2022-09-28T11:48:34.357Z,8.73
2022-09-28T11:51:04.599Z,7.75
2022-09-28T11:53:40.506Z,7.25
2022-09-28T11:56:33.748Z,8.60
2022-09-28T11:59:04.698Z,6.78
2022-09-28T12:01:40.461Z,7.20
2022-09-28T12:04:12.313Z,7.70
2022-09-28T12:06:42.404Z,8.32
2022-09-28T12:09:39.859Z,6.72
2022-09-28T12:12:16.545Z,4.10
2022-09-28T12:14:43.005Z,4.13
2022-09-28T12:17:32.250Z,5.30
2022-09-28T12:20:04.278Z,3.90
2022-09-28T12:25:14.992Z,3.50
2022-09-28T12:27:51.691Z,3.50
2022-09-28T12:30:21.896Z,4.47
2022-09-28T12:33:00.440Z,4.32
2022-09-28T12:35:43.577Z,3.83
2022-09-28T12:38:18.182Z,6.43
2022-09-28T12:41:00.382Z,4.40
2022-09-28T12:43:45.032Z,5.22
2022-09-28T12:46:24.945Z,5.50
2022-09-28T12:50:07.260Z,7.07
2022-09-28T12:52:08.346Z,6.00
2022-09-28T12:54:54.511Z,5.95
2022-09-28T12:57:45.201Z,7.25
2022-09-28T13:00:17.429Z,6.40
2022-09-28T13:05:41.605Z,5.97
2022-09-28T13:08:15.234Z,6.13
2022-09-28T13:10:48.897Z,5.68
2022-09-28T13:13:31.279Z,7.22
2022-09-28T13:18:34.876Z,4.97
2022-09-28T13:21:34.351Z,5.30
2022-09-28T13:24:14.754Z,5.57
2022-09-28T13:26:48.143Z,6.95
2022-09-28T13:29:17.109Z,6.20
2022-09-28T13:31:59.913Z,6.03
2022-09-28T13:34:29.371Z,6.50
2022-09-28T13:37:14.460Z,7.63
2022-09-28T13:39:43.897Z,7.05
2022-09-28T13:42:12.435Z,7.00
2022-09-28T13:45:16.628Z,5.38
2022-09-28T13:47:56.743Z,4.68
2022-09-28T13:51:06.625Z,5.35
2022-09-28T13:53:48.368Z,6.82
2022-09-28T13:56:38.019Z,5.72
2022-09-28T13:59:27.247Z,6.82
2022-09-28T14:02:04.200Z,6.57
2022-09-28T14:04:58.838Z,7.70
2022-09-28T14:07:34.336Z,6.97
2022-09-28T14:10:24.574Z,7.55
2022-09-28T14:12:52.421Z,8.20
2022-09-28T14:15:37.311Z,10.63
2022-09-28T14:18:29.813Z,7.32
2022-09-28T14:21:02.870Z,7.53
2022-09-28T14:23:37.910Z,6.95
2022-09-28T14:26:24.019Z,6.90
2022-09-28T14:29:06.091Z,9.20
2022-09-28T14:31:40.889Z,7.13
2022-09-28T14:34:27.207Z,5.35
2022-09-28T14:37:12.138Z,6.55
2022-09-28T14:40:02.678Z,6.10
2022-09-28T14:42:29.278Z,5.47
2022-09-28T14:45:05.398Z,6.72
2022-09-28T14:47:43.860Z,6.75
2022-09-28T14:50:25.443Z,6.57
2022-09-28T14:53:14.466Z,6.50
2022-09-28T14:55:49.800Z,6.07
2022-09-28T14:58:22.776Z,4.65
2022-09-28T15:00:52.810Z,6.10
2022-09-28T15:03:20.976Z,6.20
2022-09-28T15:05:47.717Z,5.43
2022-09-28T15:08:14.631Z,5.93
2022-09-28T15:10:46.468Z,7.28
2022-09-28T15:13:31.960Z,6.22
2022-09-28T15:16:13.234Z,6.60
2022-09-28T15:18:55.685Z,6.60
2022-09-28T15:23:49.722Z,6.10
2022-09-28T15:26:30.914Z,7.03
2022-09-28T15:28:57.643Z,7.18
2022-09-28T15:31:26.389Z,8.85
2022-09-28T15:34:12.115Z,6.25
2022-09-28T15:36:40.594Z,7.72
2022-09-28T15:39:22.137Z,7.75
2022-09-28T15:41:50.249Z,5.82
2022-09-28T15:44:24.297Z,6.90
2022-09-28T15:46:52.258Z,8.18
2022-09-28T15:49:31.582Z,7.65
2022-09-28T15:52:02.160Z,6.60
2022-09-28T15:54:34.844Z,6.75
2022-09-28T15:57:02.752Z,7.47
2022-09-28T15:59:34.638Z,6.63
2022-09-28T16:02:10.019Z,6.18
2022-09-28T16:04:47.897Z,6.57
2022-09-28T16:07:29.040Z,6.22
2022-09-28T16:10:27.998Z,11.27
2022-09-28T16:12:58.695Z,7.40
2022-09-28T16:15:28.241Z,7.57
2022-09-28T16:18:20.524Z,8.23
2022-09-28T16:20:49.892Z,8.00
2022-09-28T16:23:18.314Z,9.85
2022-09-28T16:25:59.685Z,9.02
2022-09-28T16:28:34.662Z,10.80
2022-09-28T16:31:05.488Z,10.48
2022-09-28T16:33:56.825Z,10.35
2022-09-28T16:36:27.424Z,9.93
2022-09-28T16:38:54.935Z,10.02
2022-09-28T16:41:28.860Z,9.52
2022-09-28T16:44:02.270Z,8.38
2022-09-28T16:46:33.795Z,8.50
2022-09-28T16:49:02.271Z,7.93
2022-09-28T16:51:28.829Z,6.93
2022-09-28T16:54:18.032Z,6.82
2022-09-28T16:56:44.487Z,7.07
2022-09-28T16:59:13.658Z,7.32
2022-09-28T17:01:43.937Z,7.80
2022-09-28T17:04:11.172Z,8.23
2022-09-28T17:06:38.738Z,11.10
2022-09-28T17:09:07.031Z,7.20
2022-09-28T17:11:33.511Z,8.50
2022-09-28T17:14:00.084Z,8.70
2022-09-28T17:16:57.355Z,7.15
2022-09-28T17:19:19.988Z,6.72
2022-09-28T17:21:47.042Z,5.60
2022-09-28T17:24:13.462Z,5.63
2022-09-28T17:26:42.210Z,4.45
2022-09-28T17:29:14.387Z,4.25
2022-09-28T17:34:08.621Z,4.53
2022-09-28T17:36:35.030Z,4.28
2022-09-28T17:39:01.652Z,4.13
2022-09-28T17:41:28.173Z,3.85
2022-09-28T17:43:54.600Z,3.67
2022-09-28T17:46:20.964Z,6.32
2022-09-28T17:48:47.637Z,4.57
2022-09-28T17:51:14.886Z,4.80
2022-09-28T17:53:47.660Z,3.97
2022-09-28T17:56:14.072Z,4.90
2022-09-28T17:58:40.505Z,4.20
2022-09-28T18:01:07.149Z,4.40
2022-09-28T18:03:33.614Z,4.32
2022-09-28T18:06:06.508Z,4.35
2022-09-28T18:08:33.552Z,4.63
2022-09-28T18:11:01.554Z,5.88
2022-09-28T18:13:35.291Z,4.22
2022-09-28T18:16:01.739Z,4.53
2022-09-28T18:18:28.219Z,4.60
2022-09-28T18:20:54.609Z,4.43
2022-09-28T18:23:21.151Z,4.80
2022-09-28T18:25:48.005Z,4.65
2022-09-28T18:28:22.997Z,4.20
2022-09-28T18:30:49.497Z,4.80
2022-09-28T18:33:15.961Z,5.40
2022-09-28T18:35:51.052Z,5.30
2022-09-28T18:38:17.723Z,5.75
2022-09-28T18:40:44.237Z,4.68
2022-09-28T18:43:10.704Z,7.30
2022-09-28T18:45:37.172Z,5.07
2022-09-28T18:48:03.723Z,4.97
2022-09-28T18:50:30.130Z,4.68
2022-09-28T18:53:11.869Z,4.95
2022-09-28T18:55:42.449Z,4.35
2022-09-28T18:58:10.659Z,6.13
2022-09-28T19:00:39.240Z,4.97
2022-09-28T19:03:05.969Z,6.45
2022-09-28T19:05:33.675Z,4.65
2022-09-28T19:08:00.085Z,5.28
2022-09-28T19:10:26.755Z,6.38
2022-09-28T19:12:53.216Z,4.68
2022-09-28T19:15:22.414Z,6.35
2022-09-28T19:17:50.079Z,7.00
2022-09-28T19:20:16.886Z,4.10
2022-09-28T19:23:02.528Z,6.25
2022-09-28T19:25:29.432Z,5.35
2022-09-28T19:27:55.803Z,5.32
2022-09-28T19:30:22.301Z,7.40
2022-09-28T19:32:48.859Z,5.25
2022-09-28T19:35:15.248Z,4.05
2022-09-28T19:37:42.274Z,6.55
2022-09-28T19:40:09.019Z,7.00
2022-09-28T19:42:36.131Z,10.85
2022-09-28T19:45:02.806Z,10.10
2022-09-28T19:47:29.162Z,4.93
2022-09-28T19:49:55.914Z,7.18
2022-09-28T19:52:22.278Z,6.95
2022-09-28T19:54:56.676Z,7.03
2022-09-28T19:57:29.654Z,5.40
2022-09-28T20:00:01.718Z,8.02
2022-09-28T20:02:28.802Z,10.73
2022-09-28T20:04:55.447Z,5.15
2022-09-28T20:07:22.902Z,12.02
2022-09-28T20:09:51.850Z,8.90
2022-09-28T20:12:18.216Z,9.38
2022-09-28T20:14:44.596Z,11.23
2022-09-28T20:17:10.969Z,27.27
2022-09-28T20:19:43.416Z,26.25
2022-09-28T20:22:09.832Z,13.38
2022-09-28T20:24:36.205Z,9.10
2022-09-28T20:27:02.687Z,10.27
2022-09-28T20:29:31.442Z,9.13
2022-09-28T20:31:58.095Z,9.95
2022-09-28T20:34:24.470Z,7.25
2022-09-28T20:36:50.855Z,9.13
2022-09-28T20:39:17.339Z,6.80
2022-09-28T20:41:48.956Z,6.93
2022-09-28T20:44:15.388Z,8.32
2022-09-28T20:46:44.223Z,9.35
2022-09-28T20:49:10.803Z,9.57
2022-09-28T20:51:37.187Z,6.68
2022-09-28T20:54:03.565Z,7.57
2022-09-28T20:56:37.341Z,7.20
2022-09-28T20:59:07.719Z,7.45
2022-09-28T21:01:34.207Z,7.30
2022-09-28T21:04:02.365Z,14.45
2022-09-28T21:06:30.651Z,9.82
2022-09-28T21:08:57.490Z,34.60
2022-09-28T21:11:25.265Z,22.38
2022-09-28T21:13:53.266Z,17.70
2022-09-28T21:16:19.847Z,7.85
2022-09-28T21:18:47.013Z,8.23
2022-09-28T21:21:15.325Z,10.32
2022-09-28T21:23:44.773Z,8.80
2022-09-28T21:26:18.793Z,7.35
2022-09-28T21:28:45.906Z,6.60
2022-09-28T21:31:12.930Z,7.82
2022-09-28T21:33:39.381Z,7.93
2022-09-28T21:36:07.888Z,11.82
2022-09-28T21:38:35.059Z,11.10
2022-09-28T21:41:01.627Z,7.45
2022-09-28T21:43:29.547Z,6.50
2022-09-28T21:45:56.691Z,9.80
2022-09-28T21:48:24.545Z,7.15
2022-09-28T21:51:12.948Z,7.43
2022-09-28T21:53:39.659Z,9.27
2022-09-28T21:56:07.767Z,7.93
2022-09-28T21:58:35.267Z,6.47
2022-09-28T22:01:05.658Z,7.88
2022-09-28T22:03:33.519Z,6.97
2022-09-28T22:05:59.943Z,7.05
2022-09-28T22:08:26.592Z,6.63
2022-09-28T22:11:06.598Z,9.85
2022-09-28T22:13:35.250Z,7.30
2022-09-28T22:16:02.020Z,7.72
2022-09-28T22:18:29.983Z,6.32
2022-09-28T22:21:00.423Z,6.43
2022-09-28T22:23:32.545Z,6.70
2022-09-28T22:26:04.372Z,7.22
2022-09-28T22:28:31.141Z,6.00
2022-09-28T22:30:57.735Z,5.80
2022-09-28T22:33:24.390Z,8.15
2022-09-28T22:35:51.261Z,7.85
2022-09-28T22:38:23.597Z,7.22
2022-09-28T22:40:54.517Z,7.10
2022-09-28T22:43:23.254Z,6.72
2022-09-28T22:45:51.647Z,7.47
2022-09-28T22:48:18.529Z,6.63
2022-09-28T22:50:49.645Z,5.88
2022-09-28T22:53:16.233Z,6.03
2022-09-28T22:55:42.597Z,5.30
2022-09-28T22:58:09.183Z,6.82
2022-09-28T23:00:35.649Z,6.88
2022-09-28T23:03:02.087Z,6.53
2022-09-28T23:05:28.495Z,7.40
2022-09-28T23:07:54.874Z,8.18
2022-09-28T23:10:21.311Z,7.57
2022-09-28T23:12:47.703Z,10.75
2022-09-28T23:15:14.186Z,9.52
2022-09-28T23:17:40.762Z,6.55
2022-09-28T23:20:07.393Z,8.77
2022-09-28T23:22:33.824Z,8.15
2022-09-28T23:25:00.199Z,11.45
2022-09-28T23:27:26.588Z,9.52
2022-09-28T23:29:54.241Z,10.02
2022-09-28T23:32:20.628Z,8.38
2022-09-28T23:34:47.005Z,8.73
2022-09-28T23:37:13.408Z,10.27
2022-09-28T23:39:39.795Z,10.13
2022-09-28T23:42:06.206Z,9.05
2022-09-28T23:44:33.105Z,8.80
2022-09-28T23:46:59.586Z,10.88
2022-09-28T23:49:26.185Z,9.10
2022-09-28T23:52:01.895Z,10.30
2022-09-28T23:54:28.457Z,9.43
2022-09-28T23:56:54.857Z,11.65
2022-09-28T23:59:21.255Z,11.15
